Please support this Forum and Neven's Blog

Show Posts

This section allows you to view all posts made by this member. Note that you can only see posts made in areas you currently have access to.


Attachments - Hyperion

Pages: [1]
Filename Downloads Message Posted
EOSDIS22-4-16.jpg 11 Re: The 2017 melting season April 24, 2017, 11:51:35 PM
EOSDIS22-4-17.jpg 13 Re: The 2017 melting season April 24, 2017, 11:51:35 PM
berNull17-21.gif 1949 Re: The 2017 melting season April 24, 2017, 11:51:35 PM
berNullanim15-23apr.gif 2751 Re: The 2017 melting season April 24, 2017, 01:32:33 PM
berSSTAanim15-23apr.gif 2752 Re: The 2017 melting season April 24, 2017, 01:32:33 PM
Atlantic flush.jpg 11 Re: The 2017 melting season April 24, 2017, 01:32:33 PM
25thaprlFullARCssta.jpg 11 Re: The 2017 melting season April 24, 2017, 01:32:33 PM
small15-22BESAS.gif 947 Re: The 2017 melting season April 23, 2017, 09:35:22 AM
BerEss 15-22apr.gif 92 Re: The 2017 melting season April 23, 2017, 03:13:54 AM
12 april 2007 9pm.jpeg 11 Re: Trends for the Southern Ocean April 12, 2017, 12:02:53 PM
13 april 2007 12am tpw.jpeg 14 Re: Trends for the Southern Ocean April 12, 2017, 12:02:53 PM
13 april 2007 9am mslp.jpeg 11 Re: Trends for the Southern Ocean April 12, 2017, 12:02:53 PM
31_mar17alt3kmTPWpacArc.jpeg 23 Re: The 2017 melting season March 31, 2017, 01:11:25 AM
31_3_17alt1500mArcticRH.jpeg 21 Re: The 2017 melting season March 30, 2017, 10:34:40 PM
31_3_17alt1000hpaArcticTemp.jpeg 24 Re: The 2017 melting season March 30, 2017, 10:34:40 PM
31_3_17alt3000wind&RH.jpeg 21 Re: The 2017 melting season March 30, 2017, 10:34:40 PM
31_3_17hpa1000ArcticRH.jpeg 22 Re: The 2017 melting season March 30, 2017, 10:34:40 PM
31_3_17alt3kmWindArcticTPW.jpeg 23 Re: The 2017 melting season March 30, 2017, 10:26:34 PM
31_3_17alt11kmArcticRH.jpeg 23 Re: The 2017 melting season March 30, 2017, 10:26:34 PM
31_3_17alt6kmArcticRH.jpeg 21 Re: The 2017 melting season March 30, 2017, 10:26:34 PM
31_3_17alt3kmArcticRH.jpeg 20 Re: The 2017 melting season March 30, 2017, 10:26:34 PM
27marchApocalyptoKraken..png 30 Roundhouse punches from the ApocalyptoKraken March 27, 2017, 04:51:50 AM
sevenkrakenoftheapocalypse27mar17.png 1811 Roundhouse punches from the ApocalyptoKraken March 27, 2017, 04:51:50 AM
rovboard.jpg 2999 pinning the tail on the donkey March 26, 2017, 01:15:59 AM
mauidolphin.jpg 2994 pinning the tail on the donkey March 26, 2017, 01:15:59 AM
mauiPenguin.jpg 2982 pinning the tail on the donkey March 26, 2017, 01:15:59 AM
eight_col_Flooding_at_Hunua_Ranges_Regional_Park_credit_Auckland_Council_(2).jpg 17 Re: ClimateGate 2 March 25, 2017, 12:54:27 PM
850hpa25mar17.jpeg 4454 Re: The 2017 melting season March 24, 2017, 04:57:18 PM
500hpa25mar17.jpeg 4431 Re: The 2017 melting season March 24, 2017, 04:57:18 PM
70hpa25mar17.jpeg 4442 Re: The 2017 melting season March 24, 2017, 04:57:18 PM
10hpa25mar17.jpeg 4443 Re: The 2017 melting season March 24, 2017, 04:57:18 PM
MSLP1000hpa13mar.jpg 1550 Re: The 2017 melting season March 13, 2017, 10:43:27 AM
850to700hpa13mar.jpg 1552 Re: The 2017 melting season March 13, 2017, 10:43:27 AM
500to250hpa13mar.jpg 1541 Re: The 2017 melting season March 13, 2017, 10:43:27 AM
70to10hpa13mar.jpg 1544 Re: The 2017 melting season March 13, 2017, 10:43:27 AM
250hpa12mar2017.jpeg 247 Re: Arctic temperature layers and inversions March 11, 2017, 09:11:35 PM
70hpa12mar2017.jpeg 251 Re: Arctic temperature layers and inversions March 11, 2017, 09:11:35 PM
10hpa12mar2017.jpeg 247 Re: Arctic temperature layers and inversions March 11, 2017, 09:11:35 PM
1000hpa12mar2017.jpeg 253 Re: Arctic temperature layers and inversions March 11, 2017, 09:03:15 PM
850hpa12mar2017.jpeg 255 Re: Arctic temperature layers and inversions March 11, 2017, 09:03:15 PM
700hpa12mar2017.jpeg 254 Re: Arctic temperature layers and inversions March 11, 2017, 09:03:15 PM
500hpa12mar2017.jpeg 254 Re: Arctic temperature layers and inversions March 11, 2017, 09:03:15 PM
Pages: [1]